createdAt,value
2022-08-05T00:00:51.811Z,19.91
2022-08-05T00:01:53.670Z,19.91
2022-08-05T00:02:55.617Z,19.91
2022-08-05T00:03:57.634Z,19.91
2022-08-05T00:04:59.599Z,19.91
2022-08-05T00:06:04.908Z,19.91
2022-08-05T00:07:58.930Z,19.92
2022-08-05T00:08:45.601Z,19.92
2022-08-05T00:09:49.211Z,19.94
2022-08-05T00:10:50.853Z,19.94
2022-08-05T00:11:56.079Z,19.96
2022-08-05T00:13:01.713Z,19.97
2022-08-05T00:14:11.981Z,19.99
2022-08-05T00:15:55.876Z,19.98
2022-08-05T00:16:52.595Z,19.99
2022-08-05T00:17:54.936Z,20.00
2022-08-05T00:18:56.769Z,20.01
2022-08-05T00:20:02.816Z,20.02
2022-08-05T00:21:06.860Z,20.03
2022-08-05T00:22:11.129Z,20.05
2022-08-05T00:23:13.384Z,20.06
2022-08-05T00:24:16.068Z,20.07
2022-08-05T00:25:20.738Z,20.09
2022-08-05T00:26:22.557Z,20.10
2022-08-05T00:27:28.398Z,20.10
2022-08-05T00:28:37.737Z,20.11
2022-08-05T00:29:41.489Z,20.12
2022-08-05T00:30:44.074Z,20.12
2022-08-05T00:32:10.471Z,20.13
2022-08-05T00:34:42.007Z,20.13
2022-08-05T00:34:55.634Z,20.12
2022-08-05T00:36:16.017Z,20.13
2022-08-05T00:37:14.255Z,20.13
2022-08-05T00:38:16.225Z,20.12
2022-08-05T00:39:41.603Z,20.12
2022-08-05T00:40:55.003Z,20.12
2022-08-05T00:41:56.695Z,20.11
2022-08-05T00:43:02.165Z,20.11
2022-08-05T00:44:05.102Z,20.11
2022-08-05T00:45:11.854Z,20.10
2022-08-05T00:46:15.257Z,20.09
2022-08-05T00:47:17.648Z,20.08
2022-08-05T00:48:27.412Z,20.08
2022-08-05T00:49:44.790Z,20.07
2022-08-05T00:50:54.278Z,20.05
2022-08-05T00:51:55.957Z,20.04
2022-08-05T00:52:57.704Z,20.04
2022-08-05T00:54:02.803Z,20.02
2022-08-05T00:55:05.487Z,20.00
2022-08-05T00:56:08.262Z,20.00
2022-08-05T00:57:10.015Z,19.99
2022-08-05T00:58:13.849Z,19.97
2022-08-05T00:59:15.476Z,19.96
2022-08-05T01:00:17.330Z,19.94
2022-08-05T01:01:24.958Z,19.93
2022-08-05T01:02:43.458Z,19.91
2022-08-05T01:03:45.757Z,19.91
2022-08-05T01:04:51.772Z,19.89
2022-08-05T01:05:54.624Z,19.88
2022-08-05T01:06:57.072Z,19.85
2022-08-05T01:08:40.575Z,19.82
2022-08-05T01:09:20.532Z,19.80
2022-08-05T01:10:38.529Z,19.78
2022-08-05T01:11:42.130Z,19.76
2022-08-05T01:13:00.408Z,19.73
2022-08-05T01:14:33.769Z,19.71
2022-08-05T01:15:47.900Z,19.68
2022-08-05T01:17:02.141Z,19.66
2022-08-05T01:18:09.590Z,19.64
2022-08-05T01:19:56.650Z,19.63
2022-08-05T01:21:38.135Z,19.60
2022-08-05T01:23:15.253Z,19.58
2022-08-05T01:24:39.355Z,19.56
2022-08-05T01:26:12.854Z,19.56
2022-08-05T01:27:28.941Z,19.57
2022-08-05T01:28:43.989Z,19.95
2022-08-05T01:29:49.940Z,20.65
2022-08-05T01:30:59.528Z,21.35
2022-08-05T01:32:12.323Z,21.96
2022-08-05T01:33:19.734Z,22.43
2022-08-05T01:34:32.206Z,22.47
2022-08-05T01:35:51.596Z,22.20
2022-08-05T01:37:25.083Z,21.86
2022-08-05T01:38:30.249Z,21.51
2022-08-05T01:39:46.573Z,21.32
2022-08-05T01:40:52.854Z,21.13
2022-08-05T01:41:58.740Z,20.99
2022-08-05T01:43:03.577Z,20.88
2022-08-05T01:44:09.863Z,20.78
2022-08-05T01:45:16.830Z,20.71
2022-08-05T01:46:42.077Z,20.63
2022-08-05T01:47:46.572Z,20.55
2022-08-05T01:48:52.774Z,20.49
2022-08-05T01:50:02.815Z,20.43
2022-08-05T01:51:12.157Z,20.37
2022-08-05T01:52:17.939Z,20.32
2022-08-05T01:53:55.151Z,20.27
2022-08-05T01:54:55.935Z,20.22
2022-08-05T01:56:04.517Z,20.17
2022-08-05T01:58:10.212Z,20.14
2022-08-05T01:58:44.651Z,20.09
2022-08-05T01:59:58.528Z,20.04
2022-08-05T02:01:03.220Z,19.99
2022-08-05T02:02:07.445Z,20.10
2022-08-05T02:03:38.973Z,20.58
2022-08-05T02:04:46.146Z,21.48
2022-08-05T02:05:57.884Z,22.15
2022-08-05T02:07:03.420Z,22.70
2022-08-05T02:08:06.000Z,22.85
2022-08-05T02:09:08.512Z,22.67
2022-08-05T02:10:17.317Z,22.37
2022-08-05T02:11:23.834Z,22.04
2022-08-05T02:12:50.997Z,21.72
2022-08-05T02:14:13.035Z,21.45
2022-08-05T02:15:33.340Z,21.22
2022-08-05T02:16:52.853Z,21.03
2022-08-05T02:18:30.925Z,20.88
2022-08-05T02:19:34.268Z,20.73
2022-08-05T02:20:58.720Z,20.62
2022-08-05T02:22:25.651Z,20.51
2022-08-05T02:23:37.112Z,20.39
2022-08-05T02:24:48.038Z,20.31
2022-08-05T02:25:56.281Z,20.23
2022-08-05T02:27:10.152Z,20.16
2022-08-05T02:28:14.989Z,20.09
2022-08-05T02:29:26.174Z,20.04
2022-08-05T02:30:54.559Z,20.30
2022-08-05T02:31:58.775Z,20.95
2022-08-05T02:33:10.063Z,21.58
2022-08-05T02:34:16.955Z,22.13
2022-08-05T02:35:28.336Z,22.58
2022-08-05T02:36:41.192Z,22.68
2022-08-05T02:37:46.494Z,22.44
2022-08-05T02:38:53.386Z,22.13
2022-08-05T02:39:55.793Z,21.82
2022-08-05T02:41:00.142Z,21.57
2022-08-05T02:42:25.940Z,21.30
2022-08-05T02:43:32.434Z,21.08
2022-08-05T02:44:39.492Z,20.93
2022-08-05T02:45:52.688Z,20.81
2022-08-05T02:47:00.609Z,20.68
2022-08-05T02:48:11.716Z,20.57
2022-08-05T02:49:18.173Z,20.46
2022-08-05T02:50:26.390Z,20.37
2022-08-05T02:52:02.857Z,20.30
2022-08-05T02:52:53.803Z,20.21
2022-08-05T02:54:03.169Z,20.16
2022-08-05T02:55:10.824Z,20.33
2022-08-05T02:56:16.014Z,20.86
2022-08-05T02:58:11.545Z,21.48
2022-08-05T02:58:45.472Z,22.20
2022-08-05T02:59:54.394Z,22.66
2022-08-05T03:00:58.843Z,22.86
2022-08-05T03:02:02.892Z,22.71
2022-08-05T03:03:07.663Z,22.41
2022-08-05T03:04:15.776Z,22.08
2022-08-05T03:05:21.647Z,21.79
2022-08-05T03:06:55.387Z,21.48
2022-08-05T03:08:08.959Z,21.24
2022-08-05T03:09:17.963Z,21.05
2022-08-05T03:10:37.713Z,20.86
2022-08-05T03:11:55.639Z,20.75
2022-08-05T03:14:03.023Z,20.52
2022-08-05T03:15:09.157Z,20.44
2022-08-05T03:16:11.133Z,20.35
2022-08-05T03:17:17.461Z,20.36
2022-08-05T03:18:24.618Z,20.70
2022-08-05T03:19:34.184Z,21.31
2022-08-05T03:20:38.112Z,21.89
2022-08-05T03:21:49.722Z,22.41
2022-08-05T03:22:53.180Z,22.81
2022-08-05T03:24:00.590Z,22.93
2022-08-05T03:25:31.640Z,22.72
2022-08-05T03:26:30.938Z,22.30
2022-08-05T03:27:57.587Z,21.98
2022-08-05T03:28:56.350Z,21.65
2022-08-05T03:30:08.387Z,21.44
2022-08-05T03:31:11.199Z,21.22
2022-08-05T03:32:33.110Z,21.03
2022-08-05T03:33:51.032Z,20.90
2022-08-05T03:34:55.133Z,20.75
2022-08-05T03:35:58.750Z,20.66
2022-08-05T03:37:01.535Z,20.56
2022-08-05T03:38:03.962Z,20.47
2022-08-05T03:39:13.188Z,20.53
2022-08-05T03:40:31.264Z,21.04
2022-08-05T03:41:45.149Z,21.69
2022-08-05T03:42:52.388Z,22.30
2022-08-05T03:44:08.731Z,22.76
2022-08-05T03:45:22.762Z,23.05
2022-08-05T03:46:26.821Z,22.88
2022-08-05T03:47:35.356Z,22.54
2022-08-05T03:48:42.915Z,22.20
2022-08-05T03:49:52.027Z,21.91
2022-08-05T03:52:38.509Z,21.66
2022-08-05T03:55:34.462Z,21.30
2022-08-05T03:55:51.303Z,21.07
2022-08-05T03:56:33.090Z,20.88
2022-08-05T03:57:42.253Z,20.73
2022-08-05T03:58:47.592Z,20.64
2022-08-05T04:00:19.548Z,20.77
2022-08-05T04:01:25.268Z,21.45
2022-08-05T04:02:37.698Z,22.04
2022-08-05T04:04:10.259Z,22.62
2022-08-05T04:05:10.584Z,23.13
2022-08-05T04:06:12.795Z,23.18
2022-08-05T04:07:15.279Z,22.96
2022-08-05T04:08:34.630Z,22.64
2022-08-05T04:09:38.685Z,22.25
2022-08-05T04:10:58.095Z,21.92
2022-08-05T04:11:59.978Z,21.70
2022-08-05T04:13:03.420Z,21.52
2022-08-05T04:14:07.255Z,21.36
2022-08-05T04:15:10.743Z,21.22
2022-08-05T04:16:24.080Z,21.10
2022-08-05T04:17:55.475Z,20.98
2022-08-05T04:18:54.455Z,20.86
2022-08-05T04:19:58.738Z,20.79
2022-08-05T04:21:00.652Z,20.99
2022-08-05T04:22:09.957Z,21.48
2022-08-05T04:23:16.104Z,22.12
2022-08-05T04:24:19.555Z,22.64
2022-08-05T04:25:57.555Z,23.11
2022-08-05T04:26:46.216Z,23.41
2022-08-05T04:27:58.175Z,23.29
2022-08-05T04:29:07.320Z,22.95
2022-08-05T04:30:09.959Z,22.61
2022-08-05T04:31:11.680Z,22.32
2022-08-05T04:32:13.615Z,22.07
2022-08-05T04:33:17.538Z,21.87
2022-08-05T04:34:42.993Z,21.64
2022-08-05T04:36:16.356Z,21.49
2022-08-05T04:37:06.924Z,21.33
2022-08-05T04:38:09.086Z,21.22
2022-08-05T04:39:10.817Z,21.12
2022-08-05T04:40:14.703Z,21.02
2022-08-05T04:41:21.390Z,20.95
2022-08-05T04:42:38.280Z,21.22
2022-08-05T04:43:48.089Z,21.76
2022-08-05T04:44:53.742Z,22.39
2022-08-05T04:45:55.723Z,22.86
2022-08-05T04:46:59.526Z,23.27
2022-08-05T04:48:18.441Z,23.59
2022-08-05T04:49:38.807Z,23.57
2022-08-05T04:51:01.939Z,23.20
2022-08-05T04:52:06.421Z,22.83
2022-08-05T04:53:10.947Z,22.53
2022-08-05T04:54:14.710Z,22.28
2022-08-05T04:55:16.499Z,22.05
2022-08-05T04:56:35.191Z,21.87
2022-08-05T04:57:38.681Z,21.69
2022-08-05T04:58:40.818Z,21.56
2022-08-05T04:59:42.468Z,21.45
2022-08-05T05:00:50.825Z,21.37
2022-08-05T05:02:07.417Z,21.29
2022-08-05T05:03:14.725Z,21.38
2022-08-05T05:04:21.980Z,21.85
2022-08-05T05:05:28.258Z,22.42
2022-08-05T05:06:39.618Z,23.02
2022-08-05T05:07:46.060Z,23.58
2022-08-05T05:08:58.069Z,23.94
2022-08-05T05:10:05.401Z,23.90
2022-08-05T05:11:08.105Z,23.65
2022-08-05T05:12:09.769Z,23.37
2022-08-05T05:13:15.727Z,23.08
2022-08-05T05:14:17.647Z,22.85
2022-08-05T05:15:56.546Z,22.62
2022-08-05T05:16:51.585Z,22.41
2022-08-05T05:17:57.737Z,22.27
2022-08-05T05:19:19.530Z,22.15
2022-08-05T05:20:22.450Z,22.02
2022-08-05T05:21:29.834Z,21.94
2022-08-05T05:22:35.605Z,21.86
2022-08-05T05:24:03.781Z,21.80
2022-08-05T05:25:16.543Z,21.73
2022-08-05T05:26:19.739Z,21.68
2022-08-05T05:27:44.348Z,21.90
2022-08-05T05:28:50.493Z,22.58
2022-08-05T05:30:04.652Z,23.17
2022-08-05T05:31:08.881Z,23.81
2022-08-05T05:32:12.579Z,24.25
2022-08-05T05:33:17.699Z,24.44
2022-08-05T05:34:26.697Z,24.31
2022-08-05T05:35:34.274Z,24.05
2022-08-05T05:36:39.480Z,23.75
2022-08-05T05:38:01.450Z,23.53
2022-08-05T05:39:04.465Z,23.28
2022-08-05T05:40:07.112Z,23.12
2022-08-05T05:41:09.358Z,22.99
2022-08-05T05:42:14.025Z,22.88
2022-08-05T05:43:16.126Z,22.80
2022-08-05T05:44:35.777Z,22.73
2022-08-05T05:45:38.711Z,22.66
2022-08-05T05:46:49.987Z,22.60
2022-08-05T05:48:05.469Z,22.55
2022-08-05T05:49:13.534Z,22.49
2022-08-05T05:50:25.793Z,22.46
2022-08-05T05:51:28.004Z,22.43
2022-08-05T05:52:34.581Z,22.40
2022-08-05T05:53:54.541Z,22.38
2022-08-05T05:55:01.959Z,22.37
2022-08-05T05:56:09.580Z,22.36
2022-08-05T05:57:19.001Z,22.36
2022-08-05T05:58:21.585Z,22.35
2022-08-05T05:59:33.006Z,22.35
2022-08-05T06:00:42.108Z,22.36
2022-08-05T06:01:57.705Z,22.37
2022-08-05T06:03:02.319Z,22.38
2022-08-05T06:04:04.467Z,22.39
2022-08-05T06:05:16.521Z,22.41
2022-08-05T06:06:18.761Z,22.43
2022-08-05T06:07:24.328Z,22.45
2022-08-05T06:08:44.393Z,22.47
2022-08-05T06:10:01.659Z,22.50
2022-08-05T06:11:07.538Z,22.52
2022-08-05T06:12:09.555Z,22.54
2022-08-05T06:13:11.519Z,22.56
2022-08-05T06:14:13.907Z,22.58
2022-08-05T06:15:24.125Z,22.60
2022-08-05T06:16:29.202Z,22.62
2022-08-05T06:17:52.795Z,22.65
2022-08-05T06:18:55.498Z,22.70
2022-08-05T06:20:02.091Z,22.73
2022-08-05T06:21:04.898Z,22.77
2022-08-05T06:22:09.784Z,22.80
2022-08-05T06:23:11.425Z,22.84
2022-08-05T06:24:14.744Z,22.88
2022-08-05T06:25:59.324Z,22.91
2022-08-05T06:26:38.241Z,22.95
2022-08-05T06:28:09.158Z,22.99
2022-08-05T06:29:03.681Z,23.02
2022-08-05T06:30:23.311Z,23.08
2022-08-05T06:31:30.386Z,23.11
2022-08-05T06:32:32.407Z,23.16
2022-08-05T06:34:06.869Z,23.19
2022-08-05T06:34:58.674Z,23.24
2022-08-05T06:36:05.774Z,23.28
2022-08-05T06:37:11.137Z,23.32
2022-08-05T06:38:14.469Z,23.36
2022-08-05T06:39:17.826Z,23.41
2022-08-05T06:40:27.729Z,23.44
2022-08-05T06:41:29.969Z,23.48
2022-08-05T06:42:37.063Z,23.52
2022-08-05T06:43:58.763Z,23.57
2022-08-05T06:45:05.561Z,23.62
2022-08-05T06:46:10.091Z,23.67
2022-08-05T06:47:21.662Z,23.71
2022-08-05T06:48:55.314Z,23.77
2022-08-05T06:50:01.566Z,23.83
2022-08-05T06:51:09.513Z,23.87
2022-08-05T06:52:36.965Z,23.92
2022-08-05T06:53:39.315Z,23.97
2022-08-05T06:54:41.214Z,24.01
2022-08-05T06:55:42.959Z,24.05
2022-08-05T06:56:54.820Z,24.08
2022-08-05T06:58:20.008Z,24.13
2022-08-05T06:59:30.813Z,24.16
2022-08-05T07:00:41.159Z,24.21
2022-08-05T07:01:43.077Z,24.25
2022-08-05T07:02:47.883Z,24.31
2022-08-05T07:03:55.614Z,24.36
2022-08-05T07:04:57.278Z,24.39
2022-08-05T07:06:05.992Z,24.42
2022-08-05T07:07:15.735Z,24.48
2022-08-05T07:08:26.130Z,24.52
2022-08-05T07:09:32.301Z,24.56
2022-08-05T07:10:34.264Z,24.60
2022-08-05T07:11:37.095Z,24.64
2022-08-05T07:12:57.588Z,24.66
2022-08-05T07:14:29.716Z,24.71
2022-08-05T07:16:00.983Z,24.77
2022-08-05T07:18:01.615Z,24.84
2022-08-05T07:18:29.277Z,24.90
2022-08-05T07:20:16.710Z,24.94
2022-08-05T07:20:53.993Z,24.99
2022-08-05T07:21:59.856Z,25.02
2022-08-05T07:23:02.988Z,25.06
2022-08-05T07:24:11.212Z,25.10
2022-08-05T07:25:54.345Z,25.14
2022-08-05T07:26:34.922Z,25.19
2022-08-05T07:27:56.656Z,25.23
2022-08-05T07:28:59.770Z,25.29
2022-08-05T07:30:27.919Z,25.34
2022-08-05T07:31:54.196Z,25.39
2022-08-05T07:32:45.444Z,25.44
2022-08-05T07:33:54.988Z,25.49
2022-08-05T07:35:01.590Z,25.53
2022-08-05T07:36:23.334Z,25.59
2022-08-05T07:37:28.877Z,25.63
2022-08-05T07:38:34.460Z,25.67
2022-08-05T07:40:04.731Z,25.71
2022-08-05T07:41:04.533Z,25.76
2022-08-05T07:42:18.984Z,25.80
2022-08-05T07:43:33.702Z,25.85
2022-08-05T07:44:36.557Z,25.87
2022-08-05T07:45:57.136Z,25.89
2022-08-05T07:47:00.063Z,25.93
2022-08-05T07:48:02.442Z,25.97
2022-08-05T07:49:06.206Z,26.00
2022-08-05T07:50:10.028Z,26.05
2022-08-05T07:51:23.823Z,26.08
2022-08-05T07:52:39.873Z,26.12
2022-08-05T07:53:49.997Z,26.16
2022-08-05T07:54:53.046Z,26.20
2022-08-05T07:56:06.098Z,26.23
2022-08-05T07:57:51.372Z,26.28
2022-08-05T07:58:57.321Z,26.31
2022-08-05T08:00:00.209Z,26.36
2022-08-05T08:01:01.904Z,26.41
2022-08-05T08:02:16.499Z,26.44
2022-08-05T08:03:21.552Z,26.49
2022-08-05T08:04:37.318Z,26.53
2022-08-05T08:05:49.716Z,26.58
2022-08-05T08:06:51.677Z,26.62
2022-08-05T08:07:59.868Z,26.65
2022-08-05T08:09:02.268Z,26.68
2022-08-05T08:10:05.368Z,26.71
2022-08-05T08:11:08.940Z,26.74
2022-08-05T08:12:33.410Z,26.78
2022-08-05T08:13:49.298Z,26.83
2022-08-05T08:14:57.432Z,26.87
2022-08-05T08:16:35.215Z,26.91
2022-08-05T08:17:27.936Z,26.95
2022-08-05T08:18:32.001Z,26.98
2022-08-05T08:20:21.925Z,27.02
2022-08-05T08:21:03.201Z,27.06
2022-08-05T08:22:09.006Z,27.09
2022-08-05T08:23:59.663Z,27.12
2022-08-05T08:24:51.650Z,27.15
2022-08-05T08:26:00.653Z,27.19
2022-08-05T08:27:07.039Z,27.24
2022-08-05T08:28:17.975Z,27.26
2022-08-05T08:29:45.203Z,27.30
2022-08-05T08:30:47.973Z,27.34
2022-08-05T08:31:52.268Z,27.39
2022-08-05T08:32:54.054Z,27.42
2022-08-05T08:33:56.352Z,27.46
2022-08-05T08:34:58.751Z,27.49
2022-08-05T08:36:29.451Z,27.52
2022-08-05T08:37:28.075Z,27.57
2022-08-05T08:38:35.248Z,27.62
2022-08-05T08:39:38.142Z,27.66
2022-08-05T08:40:51.434Z,27.69
2022-08-05T08:42:02.482Z,27.71
2022-08-05T08:45:21.001Z,27.73
2022-08-05T08:45:21.241Z,27.77
2022-08-05T08:45:58.933Z,27.79
2022-08-05T08:47:03.834Z,27.82
2022-08-05T08:49:03.545Z,27.85
2022-08-05T08:50:06.011Z,27.88
2022-08-05T08:52:01.662Z,27.92
2022-08-05T08:52:51.636Z,27.95
2022-08-05T08:53:55.152Z,27.97
2022-08-05T08:54:57.810Z,27.99
2022-08-05T08:56:06.043Z,28.00
2022-08-05T08:57:11.548Z,28.02
2022-08-05T08:58:16.275Z,28.05
2022-08-05T08:59:20.934Z,28.08
2022-08-05T09:00:23.654Z,28.11
2022-08-05T09:01:28.377Z,28.13
2022-08-05T09:02:30.929Z,28.16
2022-08-05T09:03:45.381Z,28.19
2022-08-05T09:05:15.929Z,28.22
2022-08-05T09:06:11.643Z,28.23
2022-08-05T09:07:28.167Z,28.26
2022-08-05T09:08:30.538Z,28.28
2022-08-05T09:09:35.443Z,28.29
2022-08-05T09:10:41.340Z,28.32
2022-08-05T09:11:52.457Z,28.35
2022-08-05T09:13:04.717Z,28.38
2022-08-05T09:14:54.814Z,28.42
2022-08-05T09:15:30.490Z,28.47
2022-08-05T09:16:32.726Z,28.51
2022-08-05T09:17:40.486Z,28.55
2022-08-05T09:18:44.529Z,28.58
2022-08-05T09:20:01.374Z,28.59
2022-08-05T09:21:04.810Z,28.63
2022-08-05T09:22:31.090Z,28.67
2022-08-05T09:23:37.525Z,28.72
2022-08-05T09:25:13.793Z,28.78
2022-08-05T09:26:25.178Z,28.84
2022-08-05T09:28:05.053Z,28.87
2022-08-05T09:29:04.932Z,28.90
2022-08-05T09:30:07.318Z,28.92
2022-08-05T09:31:23.193Z,28.94
2022-08-05T09:32:51.104Z,28.96
2022-08-05T09:33:55.369Z,28.99
2022-08-05T09:34:58.990Z,29.02
2022-08-05T09:36:11.834Z,29.04
2022-08-05T09:38:11.653Z,29.09
2022-08-05T09:39:00.084Z,29.14
2022-08-05T09:40:04.794Z,29.16
2022-08-05T09:41:10.051Z,29.18
2022-08-05T09:42:17.400Z,29.20
2022-08-05T09:43:41.366Z,29.24
2022-08-05T09:44:50.501Z,29.28
2022-08-05T09:46:06.177Z,29.33
2022-08-05T09:47:16.529Z,29.38
2022-08-05T09:48:31.453Z,29.43
2022-08-05T09:49:54.593Z,29.47
2022-08-05T09:51:01.058Z,29.50
2022-08-05T09:52:27.468Z,29.53
2022-08-05T09:53:54.794Z,29.55
2022-08-05T09:54:56.833Z,29.57
2022-08-05T09:56:04.526Z,29.59
2022-08-05T09:57:23.150Z,29.61
2022-08-05T09:58:26.622Z,29.64
2022-08-05T09:59:35.016Z,29.68
2022-08-05T10:00:39.550Z,29.71
2022-08-05T10:01:46.491Z,29.73
2022-08-05T10:02:51.389Z,29.73
2022-08-05T10:04:00.230Z,29.74
2022-08-05T10:05:26.654Z,29.76
2022-08-05T10:06:29.276Z,29.77
2022-08-05T10:08:36.136Z,29.79
2022-08-05T10:09:27.329Z,29.84
2022-08-05T10:10:48.192Z,29.86
2022-08-05T10:11:51.987Z,29.90
2022-08-05T10:12:57.117Z,29.92
2022-08-05T10:13:58.774Z,29.95
2022-08-05T10:15:20.321Z,29.99
2022-08-05T10:16:41.773Z,30.02
2022-08-05T10:18:22.698Z,30.07
2022-08-05T10:20:02.695Z,30.09
2022-08-05T10:20:57.721Z,30.14
2022-08-05T10:21:59.433Z,30.17
2022-08-05T10:23:01.971Z,30.19
2022-08-05T10:24:10.585Z,30.21
2022-08-05T10:25:14.396Z,30.23
2022-08-05T10:26:16.473Z,30.26
2022-08-05T10:27:19.003Z,30.28
2022-08-05T10:28:30.550Z,30.31
2022-08-05T10:30:06.784Z,30.34
2022-08-05T10:32:50.500Z,30.38
2022-08-05T10:32:55.447Z,30.40
2022-08-05T10:33:45.416Z,30.44
2022-08-05T10:34:55.376Z,30.48
2022-08-05T10:36:00.077Z,30.52
2022-08-05T10:37:02.454Z,30.56
2022-08-05T10:38:06.127Z,30.59
2022-08-05T10:39:24.915Z,30.61
2022-08-05T10:40:49.567Z,30.64
2022-08-05T10:42:00.485Z,30.66
2022-08-05T10:43:37.253Z,30.68
2022-08-05T10:44:45.875Z,30.70
2022-08-05T10:46:06.215Z,30.72
2022-08-05T10:47:26.938Z,30.74
2022-08-05T10:48:52.762Z,30.78
2022-08-05T10:50:32.863Z,30.83
2022-08-05T10:51:58.282Z,30.87
2022-08-05T10:53:02.260Z,30.91
2022-08-05T10:54:28.166Z,30.94
2022-08-05T10:55:27.771Z,30.98
2022-08-05T10:56:44.395Z,31.02
2022-08-05T10:57:47.124Z,31.08
2022-08-05T10:58:52.939Z,31.13
2022-08-05T11:00:09.902Z,31.18
2022-08-05T11:01:55.158Z,31.27
2022-08-05T11:03:24.371Z,31.40
2022-08-05T11:04:28.113Z,31.50
2022-08-05T11:05:34.645Z,31.57
2022-08-05T11:06:57.981Z,31.65
2022-08-05T11:08:21.756Z,31.76
2022-08-05T11:09:32.482Z,31.85
2022-08-05T11:10:50.258Z,31.91
2022-08-05T11:12:04.202Z,31.97
2022-08-05T11:13:06.879Z,32.02
2022-08-05T11:14:11.636Z,32.07
2022-08-05T11:15:20.479Z,32.11
2022-08-05T11:16:47.953Z,32.16
2022-08-05T11:18:00.279Z,32.25
2022-08-05T11:20:10.007Z,32.37
2022-08-05T11:20:53.784Z,32.49
2022-08-05T11:21:57.906Z,32.58
2022-08-05T11:23:06.112Z,32.66
2022-08-05T11:24:30.437Z,32.76
2022-08-05T11:26:05.698Z,32.84
2022-08-05T11:27:45.693Z,32.92
2022-08-05T11:28:54.987Z,33.00
2022-08-05T11:30:00.248Z,33.05
2022-08-05T11:31:01.820Z,33.09
2022-08-05T11:32:27.375Z,33.14
2022-08-05T11:33:54.761Z,33.21
2022-08-05T11:34:57.529Z,33.27
2022-08-05T11:36:02.907Z,33.33
2022-08-05T11:38:28.889Z,33.38
2022-08-05T11:38:45.748Z,33.41
2022-08-05T11:40:00.642Z,33.45
2022-08-05T11:41:56.547Z,33.49
2022-08-05T11:42:46.053Z,33.55
2022-08-05T11:44:06.503Z,33.60
2022-08-05T11:45:23.267Z,33.69
2022-08-05T11:46:34.047Z,33.75
2022-08-05T11:47:49.523Z,33.81
2022-08-05T11:48:52.268Z,33.87
2022-08-05T11:49:58.946Z,33.92
2022-08-05T11:51:01.788Z,33.97
2022-08-05T11:52:08.774Z,34.02
2022-08-05T11:53:13.383Z,34.06
2022-08-05T11:54:33.508Z,34.08
2022-08-05T11:55:36.685Z,34.13
2022-08-05T11:56:51.402Z,34.18
2022-08-05T11:58:09.676Z,34.22
2022-08-05T11:59:21.472Z,34.27
2022-08-05T12:00:31.261Z,34.32
2022-08-05T12:01:32.959Z,34.37
2022-08-05T12:02:36.246Z,34.43
2022-08-05T12:03:56.051Z,34.49
2022-08-05T12:04:59.724Z,34.57
2022-08-05T12:06:06.636Z,34.64
2022-08-05T12:07:14.811Z,34.72
2022-08-05T12:08:18.279Z,34.79
2022-08-05T12:09:38.562Z,34.85
2022-08-05T12:10:49.535Z,34.92
2022-08-05T12:11:54.455Z,34.99
2022-08-05T12:13:15.571Z,35.04
2022-08-05T12:14:19.408Z,35.08
2022-08-05T12:15:33.278Z,35.12
2022-08-05T12:16:45.373Z,35.17
2022-08-05T12:18:02.879Z,35.20
2022-08-05T12:19:08.671Z,35.24
2022-08-05T12:20:25.469Z,35.29
2022-08-05T12:21:32.482Z,35.35
2022-08-05T12:22:40.956Z,35.41
2022-08-05T12:23:54.915Z,35.46
2022-08-05T12:24:57.744Z,35.52
2022-08-05T12:25:59.375Z,35.58
2022-08-05T12:27:09.715Z,35.63
2022-08-05T12:28:37.689Z,35.71
2022-08-05T12:29:39.527Z,35.76
2022-08-05T12:30:46.038Z,35.81
2022-08-05T12:32:02.046Z,35.83
2022-08-05T12:33:07.452Z,35.85
2022-08-05T12:34:29.931Z,35.87
2022-08-05T12:35:39.438Z,35.90
2022-08-05T12:36:43.584Z,35.95
2022-08-05T12:37:47.197Z,36.01
2022-08-05T12:38:50.588Z,36.09
2022-08-05T12:39:53.793Z,36.13
2022-08-05T12:40:59.684Z,36.17
2022-08-05T12:42:01.622Z,36.22
2022-08-05T12:43:07.025Z,36.28
2022-08-05T12:44:21.579Z,36.34
2022-08-05T12:45:48.370Z,36.41
2022-08-05T12:46:54.432Z,36.50
2022-08-05T12:48:17.624Z,36.53
2022-08-05T12:49:19.058Z,36.59
2022-08-05T12:50:21.066Z,36.65
2022-08-05T12:52:14.199Z,36.72
2022-08-05T12:52:59.695Z,36.84
2022-08-05T12:54:03.962Z,36.95
2022-08-05T12:55:28.529Z,37.05
2022-08-05T12:56:40.827Z,37.20
2022-08-05T12:58:52.742Z,37.32
2022-08-05T12:59:13.968Z,37.44
2022-08-05T13:02:01.166Z,37.54
2022-08-05T13:02:06.975Z,37.65
2022-08-05T13:03:12.293Z,37.74
2022-08-05T13:04:21.202Z,37.80
2022-08-05T13:05:24.575Z,37.83
2022-08-05T13:06:41.193Z,37.83
2022-08-05T13:08:00.141Z,37.84
2022-08-05T13:09:10.379Z,37.87
2022-08-05T13:10:19.531Z,37.89
2022-08-05T13:11:59.844Z,37.91
2022-08-05T13:12:51.023Z,37.93
2022-08-05T13:14:06.467Z,37.97
2022-08-05T13:15:18.043Z,37.98
2022-08-05T13:16:28.047Z,37.95
2022-08-05T13:17:41.871Z,37.95
2022-08-05T13:18:58.761Z,37.96
2022-08-05T13:20:16.510Z,38.00
2022-08-05T13:21:20.909Z,38.04
2022-08-05T13:22:28.380Z,38.08
2022-08-05T13:23:31.581Z,38.12
2022-08-05T13:24:57.313Z,38.15
2022-08-05T13:26:01.362Z,38.14
2022-08-05T13:27:03.207Z,38.10
2022-08-05T13:28:06.445Z,38.07
2022-08-05T13:29:08.357Z,38.05
2022-08-05T13:30:34.868Z,38.02
2022-08-05T13:32:04.023Z,38.00
2022-08-05T13:33:01.633Z,37.93
2022-08-05T13:34:23.128Z,37.87
2022-08-05T13:35:42.674Z,37.76
2022-08-05T13:36:47.139Z,37.66
2022-08-05T13:37:55.402Z,37.58
2022-08-05T13:38:57.582Z,37.53
2022-08-05T13:40:14.583Z,37.51
2022-08-05T13:41:21.396Z,37.55
2022-08-05T13:42:27.491Z,37.62
2022-08-05T13:43:45.690Z,37.70
2022-08-05T13:44:55.597Z,37.79
2022-08-05T13:45:57.623Z,37.85
2022-08-05T13:47:04.759Z,37.93
2022-08-05T13:48:58.582Z,38.05
2022-08-05T13:49:35.377Z,38.18
2022-08-05T13:50:37.264Z,38.27
2022-08-05T13:51:41.371Z,38.38
2022-08-05T13:52:43.548Z,38.46
2022-08-05T13:53:47.947Z,38.56
2022-08-05T13:54:53.287Z,38.64
2022-08-05T13:56:00.166Z,38.70
2022-08-05T13:57:03.770Z,38.76
2022-08-05T13:58:07.989Z,38.82
2022-08-05T13:59:20.427Z,38.88
2022-08-05T14:00:27.519Z,38.92
2022-08-05T14:01:44.432Z,38.97
2022-08-05T14:02:51.298Z,39.02
2022-08-05T14:04:11.578Z,39.04
2022-08-05T14:05:29.550Z,39.06
2022-08-05T14:06:37.442Z,39.08
2022-08-05T14:07:59.742Z,39.07
2022-08-05T14:09:08.574Z,38.99
2022-08-05T14:10:30.873Z,38.91
2022-08-05T14:11:33.052Z,38.86
2022-08-05T14:12:54.808Z,38.80
2022-08-05T14:13:57.734Z,38.75
2022-08-05T14:14:59.931Z,38.73
2022-08-05T14:16:05.996Z,38.75
2022-08-05T14:17:16.882Z,38.81
2022-08-05T14:18:23.510Z,38.91
2022-08-05T14:19:25.841Z,38.98
2022-08-05T14:20:29.689Z,39.03
2022-08-05T14:22:09.997Z,39.08
2022-08-05T14:22:53.536Z,39.15
2022-08-05T14:23:55.168Z,39.20
2022-08-05T14:24:56.795Z,39.28
2022-08-05T14:25:59.663Z,39.39
2022-08-05T14:27:17.492Z,39.52
2022-08-05T14:28:26.923Z,39.68
2022-08-05T14:29:29.341Z,39.85
2022-08-05T14:30:33.087Z,40.02
2022-08-05T14:32:02.724Z,40.19
2022-08-05T14:32:57.129Z,40.44
2022-08-05T14:34:00.860Z,40.61
2022-08-05T14:35:04.219Z,40.78
2022-08-05T14:36:12.441Z,40.94
2022-08-05T14:37:14.170Z,41.02
2022-08-05T14:38:31.571Z,41.10
2022-08-05T14:39:49.234Z,41.24
2022-08-05T14:40:55.317Z,41.39
2022-08-05T14:42:19.527Z,41.51
2022-08-05T14:43:20.577Z,41.67
2022-08-05T14:44:42.245Z,41.81
2022-08-05T14:45:44.623Z,41.91
2022-08-05T14:46:46.317Z,41.97
2022-08-05T14:48:03.501Z,42.02
2022-08-05T14:49:08.333Z,42.09
2022-08-05T14:50:17.749Z,42.11
2022-08-05T14:51:20.442Z,42.06
2022-08-05T14:52:50.119Z,42.00
2022-08-05T14:54:06.676Z,41.91
2022-08-05T14:55:17.211Z,41.90
2022-08-05T14:56:22.849Z,41.91
2022-08-05T14:57:34.104Z,41.93
2022-08-05T14:58:53.010Z,41.98
2022-08-05T14:59:54.852Z,42.06
2022-08-05T15:01:00.322Z,42.17
2022-08-05T15:02:15.138Z,42.28
2022-08-05T15:03:17.886Z,42.39
2022-08-05T15:04:22.517Z,42.41
2022-08-05T15:05:30.022Z,42.39
2022-08-05T15:06:49.603Z,42.29
2022-08-05T15:08:08.792Z,42.23
2022-08-05T15:09:13.289Z,42.17
2022-08-05T15:10:17.162Z,42.16
2022-08-05T15:11:18.856Z,42.18
2022-08-05T15:12:21.153Z,42.22
2022-08-05T15:13:45.945Z,42.29
2022-08-05T15:14:49.987Z,42.36
2022-08-05T15:15:55.261Z,42.41
2022-08-05T15:16:57.753Z,42.50